Time;durP1;ratioP1;P1;durP2;ratioP2;P2;SDS_P1;SDS_P2;PMS_P1;PMS_P2;Temp;Humidity;BMP_temperature;BMP_pressure;BME280_temperature;BME280_humidity;BME280_pressure;Samples;Min_cycle;Max_cycle;Signal;HPM_P1;HPM_P2
2022/06/09 00:00:03;;;;;;;1.10;0.63;;;18.10;99.90;;;;;;7393721;19;20602;-87
2022/06/09 00:02:30;;;;;;;0.88;0.50;;;18.10;99.90;;;;;;7397368;19;20445;-81
2022/06/09 00:04:57;;;;;;;1.55;0.40;;;18.10;99.90;;;;;;7393429;19;20167;-81
2022/06/09 00:07:24;;;;;;;0.65;0.40;;;18.10;99.90;;;;;;7395791;19;20138;-86
2022/06/09 00:10:05;;;;;;;1.88;0.60;;;18.10;99.90;;;;;;7393881;19;20206;-86
2022/06/09 00:12:31;;;;;;;0.45;0.45;;;18.20;99.90;;;;;;7394733;19;20625;-82
2022/06/09 00:14:57;;;;;;;2.88;0.50;;;18.10;99.90;;;;;;7395378;19;20130;-85
2022/06/09 00:17:24;;;;;;;0.60;0.57;;;18.10;99.90;;;;;;7393773;19;20147;-81
2022/06/09 00:19:51;;;;;;;2.55;0.60;;;18.10;99.90;;;;;;7392872;19;20235;-80
2022/06/09 00:22:17;;;;;;;1.73;0.63;;;18.30;99.90;;;;;;7389516;19;20693;-82
2022/06/09 00:24:43;;;;;;;0.70;0.50;;;18.10;99.90;;;;;;7396867;19;20497;-81
2022/06/09 00:27:09;;;;;;;1.27;0.63;;;18.20;99.90;;;;;;7394259;19;20130;-80
2022/06/09 00:29:36;;;;;;;1.00;0.50;;;18.10;99.90;;;;;;7396853;19;20238;-81
2022/06/09 00:32:02;;;;;;;0.98;0.70;;;18.10;99.90;;;;;;7396520;19;20130;-88
2022/06/09 00:34:28;;;;;;;1.48;0.60;;;18.10;99.90;;;;;;7394540;19;20130;-82
2022/06/09 00:36:53;;;;;;;0.98;0.60;;;18.00;99.90;;;;;;7394890;19;20159;-81
2022/06/09 00:39:19;;;;;;;1.80;0.50;;;18.00;99.90;;;;;;7392355;19;20130;-86
2022/06/09 00:41:45;;;;;;;0.93;0.50;;;18.10;99.90;;;;;;7397748;19;20130;-81
2022/06/09 00:44:22;;;;;;;1.20;0.40;;;18.00;99.90;;;;;;7394604;19;20155;-87
2022/06/09 00:47:14;;;;;;;0.68;0.40;;;18.10;99.90;;;;;;7393228;19;20126;-80
2022/06/09 00:49:58;;;;;;;0.30;0.30;;;17.90;99.90;;;;;;7391137;19;20142;-80
2022/06/09 00:52:28;;;;;;;0.60;0.40;;;17.90;99.90;;;;;;7396127;19;20123;-80
2022/06/09 00:54:58;;;;;;;0.75;0.43;;;17.70;99.90;;;;;;7397121;19;20147;-80
2022/06/09 00:57:33;;;;;;;0.70;0.35;;;17.90;99.90;;;;;;7394391;19;20596;-81
2022/06/09 01:00:06;;;;;;;2.58;0.77;;;17.90;99.90;;;;;;7392516;19;20158;-80
2022/06/09 01:02:33;;;;;;;0.63;0.40;;;18.00;99.90;;;;;;7395073;19;20209;-80
2022/06/09 01:05:05;;;;;;;0.60;0.40;;;18.00;99.90;;;;;;7396599;19;20150;-81
2022/06/09 01:07:43;;;;;;;0.65;0.40;;;18.10;99.90;;;;;;7398412;19;20143;-81
2022/06/09 01:10:09;;;;;;;1.67;0.40;;;18.20;99.90;;;;;;7397148;19;20130;-81
2022/06/09 01:12:40;;;;;;;0.57;0.40;;;18.00;99.90;;;;;;7403241;19;20150;-79
2022/06/09 01:15:19;;;;;;;1.02;0.47;;;18.00;99.90;;;;;;7400387;19;20554;-80
2022/06/09 01:17:50;;;;;;;1.05;0.40;;;17.90;99.90;;;;;;7399440;19;20149;-79
2022/06/09 01:20:39;;;;;;;0.32;0.30;;;17.90;99.90;;;;;;7400986;19;20141;-86
2022/06/09 01:23:26;;;;;;;0.32;0.30;;;17.70;99.90;;;;;;7403175;19;20166;-81
2022/06/09 01:26:01;;;;;;;0.40;0.40;;;17.50;99.90;;;;;;7401877;19;20131;-80
2022/06/09 01:28:56;;;;;;;0.45;0.40;;;17.60;99.90;;;;;;7403622;19;20154;-80
2022/06/09 01:31:43;;;;;;;0.73;0.40;;;17.70;99.90;;;;;;7400027;19;20160;-85
2022/06/09 01:34:23;;;;;;;0.20;0.20;;;17.70;99.90;;;;;;7402030;19;20149;-78
2022/06/09 01:37:16;;;;;;;1.02;0.40;;;17.10;99.90;;;;;;7403166;19;20126;-87
2022/06/09 01:39:42;;;;;;;1.38;0.47;;;17.30;99.90;;;;;;7399060;19;20139;-80
2022/06/09 01:42:26;;;;;;;1.75;0.40;;;17.30;99.90;;;;;;7402026;19;20150;-78
2022/06/09 01:44:55;;;;;;;0.35;0.20;;;17.20;99.90;;;;;;7399206;19;20138;-79
2022/06/09 01:47:25;;;;;;;0.75;0.40;;;17.10;99.90;;;;;;7396413;19;20151;-78
2022/06/09 01:49:55;;;;;;;1.02;0.30;;;17.30;99.90;;;;;;7396680;19;20504;-78
2022/06/09 01:52:21;;;;;;;1.40;0.40;;;17.20;99.90;;;;;;7400208;19;20147;-87
2022/06/09 01:54:49;;;;;;;1.52;0.38;;;17.20;99.90;;;;;;7399881;19;20138;-86
2022/06/09 01:57:21;;;;;;;0.45;0.30;;;17.20;99.90;;;;;;7400614;19;20135;-79
2022/06/09 02:00:04;;;;;;;1.63;0.40;;;17.20;99.90;;;;;;7400732;19;20137;-83
2022/06/09 02:02:49;;;;;;;0.80;0.43;;;17.20;99.90;;;;;;7399287;19;20213;-79
2022/06/09 02:05:31;;;;;;;0.98;0.50;;;17.30;99.90;;;;;;7395487;19;20147;-80
2022/06/09 02:08:03;;;;;;;1.40;0.52;;;17.20;99.90;;;;;;7398639;19;20618;-85
2022/06/09 02:10:38;;;;;;;1.58;0.50;;;17.10;99.90;;;;;;7396565;19;20138;-79
2022/06/09 02:13:20;;;;;;;0.50;0.40;;;17.10;99.90;;;;;;7397218;19;20163;-86
2022/06/09 02:15:50;;;;;;;4.15;0.60;;;17.00;99.90;;;;;;7401289;19;20558;-79
2022/06/09 02:18:23;;;;;;;1.67;0.55;;;17.00;99.90;;;;;;7396730;19;20489;-86
2022/06/09 02:20:55;;;;;;;1.50;0.55;;;17.10;99.90;;;;;;7397880;19;20142;-85
2022/06/09 02:23:24;;;;;;;0.75;0.60;;;17.10;99.90;;;;;;7396692;19;20176;-84
2022/06/09 02:25:50;;;;;;;3.67;0.57;;;17.20;99.90;;;;;;7396514;19;20146;-80
2022/06/09 02:28:16;;;;;;;0.90;0.43;;;17.20;99.90;;;;;;7396853;19;20153;-79
2022/06/09 02:30:42;;;;;;;1.63;0.50;;;17.10;99.90;;;;;;7405560;19;20169;-86
2022/06/09 02:33:08;;;;;;;0.52;0.40;;;17.00;99.90;;;;;;7398949;19;20141;-81
2022/06/09 02:35:34;;;;;;;2.20;0.60;;;17.00;99.90;;;;;;7397544;19;20185;-80
2022/06/09 02:38:00;;;;;;;0.70;0.40;;;17.20;99.90;;;;;;7398896;19;20143;-80
2022/06/09 02:40:31;;;;;;;3.38;0.80;;;17.00;99.90;;;;;;7398684;19;20131;-85
2022/06/09 02:42:57;;;;;;;0.82;0.57;;;17.20;99.90;;;;;;7397830;19;20150;-80
2022/06/09 02:45:23;;;;;;;1.50;0.70;;;17.10;99.90;;;;;;7402384;19;20138;-79
2022/06/09 02:47:49;;;;;;;2.28;0.47;;;17.20;99.90;;;;;;7397408;19;20153;-81
2022/06/09 02:50:16;;;;;;;1.55;0.60;;;17.10;99.90;;;;;;7392519;19;20134;-80
2022/06/09 02:52:42;;;;;;;0.82;0.40;;;17.00;99.90;;;;;;7397299;19;20139;-83
2022/06/09 02:55:09;;;;;;;1.45;0.60;;;17.10;99.90;;;;;;7398443;19;20169;-80
2022/06/09 02:57:36;;;;;;;0.50;0.40;;;17.20;99.90;;;;;;7395004;19;20146;-80
2022/06/09 03:00:04;;;;;;;1.23;0.82;;;17.20;99.90;;;;;;7397024;19;20159;-85
2022/06/09 03:02:30;;;;;;;3.42;1.02;;;17.20;99.90;;;;;;7398450;19;20138;-80
2022/06/09 03:04:55;;;;;;;0.50;0.50;;;17.40;99.90;;;;;;7393232;19;20613;-80
2022/06/09 03:07:24;;;;;;;1.38;0.70;;;17.20;99.90;;;;;;7393079;19;20134;-80
2022/06/09 03:09:51;;;;;;;2.60;0.60;;;17.20;99.90;;;;;;7392628;19;20139;-84
2022/06/09 03:12:17;;;;;;;1.73;0.70;;;17.10;99.90;;;;;;7394821;19;20142;-84
2022/06/09 03:14:43;;;;;;;2.30;0.65;;;17.10;99.90;;;;;;7394914;19;20209;-80
2022/06/09 03:17:10;;;;;;;0.98;0.80;;;17.10;99.90;;;;;;7394311;19;20154;-82
2022/06/09 03:19:37;;;;;;;2.08;0.80;;;17.10;99.90;;;;;;7396293;19;20158;-79
2022/06/09 03:22:03;;;;;;;0.85;0.60;;;17.20;99.90;;;;;;7395003;19;20163;-80
2022/06/09 03:24:29;;;;;;;1.42;0.70;;;17.20;99.90;;;;;;7393539;19;20158;-81
2022/06/09 03:26:55;;;;;;;1.65;0.70;;;17.20;99.90;;;;;;7394697;19;20239;-85
2022/06/09 03:29:21;;;;;;;1.88;0.60;;;17.10;99.90;;;;;;7394290;19;20250;-80
2022/06/09 03:31:48;;;;;;;1.65;0.80;;;17.20;99.90;;;;;;7395773;19;20151;-85
2022/06/09 03:34:14;;;;;;;2.75;0.88;;;17.20;99.90;;;;;;7398416;19;20152;-84
2022/06/09 03:36:43;;;;;;;3.17;0.60;;;17.00;99.90;;;;;;7398613;19;20139;-81
2022/06/09 03:39:09;;;;;;;2.33;0.60;;;17.00;99.90;;;;;;7392800;19;20134;-81
2022/06/09 03:41:35;;;;;;;1.02;0.75;;;17.10;99.90;;;;;;7392956;19;20155;-85
2022/06/09 03:44:01;;;;;;;1.67;0.82;;;17.00;99.90;;;;;;7395756;19;20146;-80
2022/06/09 03:46:27;;;;;;;1.70;0.70;;;17.00;99.90;;;;;;7394875;19;20578;-80
2022/06/09 03:48:53;;;;;;;2.28;1.00;;;16.80;99.90;;;;;;7393860;19;20145;-80
2022/06/09 03:51:19;;;;;;;0.85;0.73;;;16.80;99.90;;;;;;7391300;19;20218;-86
2022/06/09 03:53:45;;;;;;;1.35;0.70;;;16.90;99.90;;;;;;7399430;19;20850;-79
2022/06/09 03:56:15;;;;;;;2.15;0.75;;;16.80;99.90;;;;;;7393987;19;20146;-80
2022/06/09 03:58:42;;;;;;;1.25;0.73;;;16.80;99.90;;;;;;7398439;19;20138;-80
2022/06/09 04:01:13;;;;;;;1.85;0.90;;;16.90;99.90;;;;;;7391708;19;20198;-80
2022/06/09 04:03:42;;;;;;;0.93;0.50;;;16.70;99.90;;;;;;7395052;19;20771;-84
2022/06/09 04:06:17;;;;;;;1.35;0.65;;;17.00;99.90;;;;;;7394538;19;20661;-85
2022/06/09 04:08:43;;;;;;;1.73;1.00;;;17.10;99.90;;;;;;7394730;19;20210;-87
2022/06/09 04:11:09;;;;;;;2.55;0.68;;;16.80;99.90;;;;;;7396875;19;20201;-80
2022/06/09 04:13:37;;;;;;;2.10;0.73;;;16.80;99.90;;;;;;7390940;19;20135;-78
2022/06/09 04:16:06;;;;;;;2.63;1.02;;;16.90;99.90;;;;;;7395087;19;20142;-80
2022/06/09 04:18:32;;;;;;;1.83;0.77;;;16.90;99.90;;;;;;7391519;19;20165;-79
2022/06/09 04:20:58;;;;;;;1.55;0.70;;;17.00;99.90;;;;;;7394533;19;20174;-85
2022/06/09 04:23:25;;;;;;;1.73;0.93;;;17.10;99.90;;;;;;7392535;19;20147;-83
2022/06/09 04:25:51;;;;;;;3.00;1.10;;;17.10;99.90;;;;;;7393157;19;20150;-81
2022/06/09 04:28:18;;;;;;;6.05;1.45;;;17.10;99.90;;;;;;7394688;19;20650;-85
2022/06/09 04:30:44;;;;;;;1.75;0.88;;;17.10;99.90;;;;;;7394465;19;20161;-80
2022/06/09 04:33:10;;;;;;;1.25;0.65;;;17.00;99.90;;;;;;7391754;19;20135;-84
2022/06/09 04:35:36;;;;;;;1.88;0.77;;;17.10;99.90;;;;;;7392847;19;20557;-83
2022/06/09 04:38:02;;;;;;;1.27;0.65;;;16.80;99.90;;;;;;7390494;19;20138;-83
2022/06/09 04:40:34;;;;;;;2.17;0.80;;;16.80;99.90;;;;;;7391047;19;20146;-82
2022/06/09 04:43:01;;;;;;;3.13;0.90;;;17.00;99.90;;;;;;7394595;19;20138;-86
2022/06/09 04:45:28;;;;;;;0.93;0.57;;;16.60;99.90;;;;;;7392343;19;20130;-80
2022/06/09 04:47:53;;;;;;;1.40;0.73;;;16.80;99.90;;;;;;7390303;19;20174;-83
2022/06/09 04:50:19;;;;;;;2.97;0.70;;;16.90;99.90;;;;;;7392203;19;20194;-84
2022/06/09 04:52:46;;;;;;;1.38;0.82;;;16.60;99.90;;;;;;7393363;19;21500;-82
2022/06/09 04:55:13;;;;;;;1.13;0.80;;;16.70;99.90;;;;;;7390838;19;20154;-82
2022/06/09 04:57:39;;;;;;;2.72;0.70;;;16.70;99.90;;;;;;7391363;19;20149;-85
2022/06/09 05:00:07;;;;;;;1.80;0.80;;;16.80;99.90;;;;;;7390365;19;20579;-85
2022/06/09 05:02:33;;;;;;;3.92;1.10;;;16.70;99.90;;;;;;7391720;19;20159;-83
2022/06/09 05:04:58;;;;;;;1.13;0.75;;;16.80;99.90;;;;;;7392389;19;21055;-86
2022/06/09 05:07:25;;;;;;;2.20;0.70;;;16.70;99.90;;;;;;7391305;19;20135;-82
2022/06/09 05:09:51;;;;;;;2.58;0.93;;;16.40;99.90;;;;;;7388968;19;20139;-85
2022/06/09 05:12:16;;;;;;;1.80;0.75;;;16.90;99.90;;;;;;7393046;19;20146;-82
2022/06/09 05:14:42;;;;;;;0.90;0.80;;;16.70;99.90;;;;;;7395972;19;20149;-78
2022/06/09 05:17:08;;;;;;;2.10;1.00;;;16.70;99.90;;;;;;7391648;19;20386;-78
2022/06/09 05:19:34;;;;;;;3.72;0.80;;;16.30;99.90;;;;;;7390580;19;20178;-83
2022/06/09 05:22:00;;;;;;;2.10;0.70;;;16.50;99.90;;;;;;7388335;19;20190;-80
2022/06/09 05:24:26;;;;;;;2.28;0.88;;;16.70;99.90;;;;;;7389546;19;20150;-78
2022/06/09 05:26:52;;;;;;;2.42;1.00;;;16.80;99.90;;;;;;7386788;19;20135;-80
2022/06/09 05:29:17;;;;;;;1.17;0.70;;;16.80;99.90;;;;;;7387595;19;20518;-79
2022/06/09 05:31:43;;;;;;;2.03;1.00;;;16.90;99.90;;;;;;7388729;19;20143;-79
2022/06/09 05:34:10;;;;;;;4.55;0.80;;;16.80;99.90;;;;;;7387761;19;20158;-78
2022/06/09 05:36:37;;;;;;;5.38;3.72;;;17.00;99.90;;;;;;7386924;19;20535;-76
2022/06/09 05:47:19;;;;;;;1.63;0.73;;;17.00;99.90;;;;;;7389615;19;20496;-79
2022/06/09 05:49:47;;;;;;;2.17;0.80;;;17.20;99.90;;;;;;7393262;19;20138;-79
2022/06/09 05:52:17;;;;;;;1.40;0.90;;;17.30;99.90;;;;;;7397829;19;20134;-77
2022/06/09 05:54:43;;;;;;;3.00;0.85;;;17.20;99.90;;;;;;7398281;19;20606;-80
2022/06/09 05:57:09;;;;;;;1.98;0.57;;;17.30;99.90;;;;;;7393941;19;20177;-76
2022/06/09 05:59:36;;;;;;;3.22;1.20;;;16.90;99.90;;;;;;7398041;19;20135;-80
2022/06/09 06:02:03;;;;;;;2.25;0.88;;;16.70;99.90;;;;;;7398038;19;20146;-78
2022/06/09 06:04:29;;;;;;;2.20;1.20;;;16.50;99.90;;;;;;7390809;19;20230;-82
2022/06/09 06:06:55;;;;;;;2.17;1.40;;;17.00;99.90;;;;;;7392623;19;20159;-81
2022/06/09 06:09:21;;;;;;;3.75;1.27;;;17.10;99.90;;;;;;7395802;19;20142;-81
2022/06/09 06:11:48;;;;;;;3.53;1.60;;;17.20;99.90;;;;;;7395140;19;20131;-78
2022/06/09 06:14:15;;;;;;;3.95;1.33;;;17.80;99.90;;;;;;7392787;19;20367;-80
2022/06/09 06:16:41;;;;;;;3.72;1.13;;;19.00;99.90;;;;;;7392323;19;20143;-79
2022/06/09 06:19:12;;;;;;;1.67;1.00;;;19.40;99.90;;;;;;7392573;19;20162;-82
2022/06/09 06:21:42;;;;;;;0.98;0.77;;;19.10;99.90;;;;;;7394330;19;20171;-77
2022/06/09 06:24:10;;;;;;;1.98;1.40;;;20.40;99.90;;;;;;7393716;19;20565;-77
2022/06/09 06:26:36;;;;;;;2.22;1.20;;;21.40;99.90;;;;;;7395119;19;20135;-78
2022/06/09 06:29:04;;;;;;;3.28;1.15;;;22.40;99.90;;;;;;7392788;19;20139;-78
2022/06/09 06:31:30;;;;;;;2.35;1.08;;;22.60;99.90;;;;;;7394846;19;20149;-82
2022/06/09 06:33:56;;;;;;;2.47;1.05;;;22.40;99.90;;;;;;7391966;19;20138;-80
2022/06/09 06:36:22;;;;;;;4.60;0.98;;;21.60;99.90;;;;;;7395530;19;20151;-77
2022/06/09 06:38:49;;;;;;;3.72;1.25;;;21.10;99.90;;;;;;7393925;19;20142;-81
2022/06/09 06:41:16;;;;;;;4.32;1.70;;;21.40;99.90;;;;;;7396334;19;20162;-82
2022/06/09 06:43:46;;;;;;;4.13;1.60;;;20.90;99.90;;;;;;7393992;19;20138;-80
2022/06/09 06:46:13;;;;;;;3.35;1.42;;;20.40;99.90;;;;;;7390944;19;20139;-80
2022/06/09 06:48:38;;;;;;;3.85;1.20;;;20.80;99.90;;;;;;7392014;19;20158;-82
2022/06/09 06:51:08;;;;;;;3.33;0.85;;;20.40;99.90;;;;;;7393253;19;20150;-80
2022/06/09 06:53:38;;;;;;;1.77;0.90;;;21.30;99.90;;;;;;7397225;19;20238;-83
2022/06/09 06:56:04;;;;;;;1.85;0.85;;;21.70;99.90;;;;;;7394217;19;20146;-81
2022/06/09 06:58:31;;;;;;;2.45;0.80;;;21.90;99.90;;;;;;7396466;19;20144;-86
2022/06/09 07:00:58;;;;;;;1.92;0.90;;;21.30;99.90;;;;;;7388684;19;20143;-82
2022/06/09 07:03:25;;;;;;;6.20;3.03;;;21.00;99.90;;;;;;7394011;19;20221;-82
2022/06/09 07:05:50;;;;;;;2.90;1.00;;;20.70;99.90;;;;;;7393664;19;20139;-81
2022/06/09 07:08:17;;;;;;;3.10;1.08;;;20.80;99.90;;;;;;7394647;19;20133;-89
2022/06/09 07:10:44;;;;;;;5.03;1.25;;;21.00;99.90;;;;;;7393815;19;20127;-88
2022/06/09 07:13:10;;;;;;;3.83;1.00;;;21.30;99.90;;;;;;7395153;19;20146;-80
2022/06/09 07:15:37;;;;;;;2.33;0.93;;;21.20;99.90;;;;;;7394763;19;20222;-80
2022/06/09 07:18:03;;;;;;;2.90;0.63;;;21.10;99.90;;;;;;7396341;19;20150;-89
2022/06/09 07:20:29;;;;;;;4.65;2.72;;;20.30;99.90;;;;;;7399024;19;20158;-89
2022/06/09 07:22:55;;;;;;;1.55;0.88;;;19.80;99.90;;;;;;7394889;19;20155;-80
2022/06/09 07:25:23;;;;;;;2.22;0.80;;;20.10;99.90;;;;;;7396732;19;20149;-85
2022/06/09 07:27:51;;;;;;;3.80;0.88;;;20.50;99.90;;;;;;7399011;19;20898;-86
2022/06/09 07:30:18;;;;;;;2.53;0.80;;;21.30;99.90;;;;;;7398993;19;20142;-84
2022/06/09 07:32:44;;;;;;;1.52;0.60;;;22.40;99.90;;;;;;7396773;19;20176;-83
2022/06/09 07:35:14;;;;;;;1.55;0.70;;;22.50;99.90;;;;;;7398887;19;20122;-83
2022/06/09 07:37:40;;;;;;;3.03;1.00;;;22.40;99.90;;;;;;7395690;19;20392;-84
2022/06/09 07:40:07;;;;;;;4.18;1.33;;;23.20;99.90;;;;;;7397285;19;20502;-84
2022/06/09 07:42:33;;;;;;;7.05;3.05;;;23.80;99.90;;;;;;7394814;19;20141;-83
2022/06/09 07:44:59;;;;;;;3.28;0.98;;;23.70;99.90;;;;;;7395503;19;20225;-81
2022/06/09 07:47:25;;;;;;;3.47;1.10;;;23.50;99.90;;;;;;7386112;19;20130;-79
2022/06/09 07:49:52;;;;;;;3.22;1.38;;;23.90;99.90;;;;;;7389168;19;20210;-81
2022/06/09 07:52:21;;;;;;;5.22;1.15;;;24.10;99.90;;;;;;7394571;19;20214;-82
2022/06/09 07:54:46;;;;;;;4.15;1.10;;;24.20;99.90;;;;;;7394119;19;20151;-84
2022/06/09 07:57:12;;;;;;;2.83;0.90;;;23.50;99.90;;;;;;7393887;19;20158;-81
2022/06/09 07:59:38;;;;;;;2.72;0.88;;;23.30;99.90;;;;;;7394226;19;20138;-83
2022/06/09 08:02:04;;;;;;;4.20;2.08;;;23.40;99.90;;;;;;7394694;19;20151;-87
2022/06/09 08:04:30;;;;;;;11.32;6.70;;;23.80;99.90;;;;;;7394888;19;20507;-89
2022/06/09 08:06:56;;;;;;;2.60;1.00;;;23.70;99.90;;;;;;7393593;19;20466;-83
2022/06/09 08:09:22;;;;;;;1.85;0.95;;;23.50;99.90;;;;;;7395039;19;20159;-82
2022/06/09 08:11:49;;;;;;;2.45;0.80;;;23.20;99.90;;;;;;7392436;19;20176;-82
2022/06/09 08:14:15;;;;;;;2.28;0.80;;;22.70;99.90;;;;;;7393718;19;20145;-81
2022/06/09 08:16:41;;;;;;;2.10;0.90;;;22.00;99.90;;;;;;7394689;19;20629;-80
2022/06/09 08:19:07;;;;;;;3.58;1.02;;;21.80;99.90;;;;;;7390784;19;20632;-82
2022/06/09 08:21:33;;;;;;;2.85;1.40;;;21.60;99.90;;;;;;7398010;19;20153;-83
2022/06/09 08:24:00;;;;;;;4.90;2.97;;;21.60;99.90;;;;;;7394470;19;20543;-85
2022/06/09 08:26:26;;;;;;;2.80;1.08;;;21.30;99.90;;;;;;7392555;19;20146;-83
2022/06/09 08:28:52;;;;;;;4.13;1.20;;;21.90;99.90;;;;;;7393219;19;20162;-82
2022/06/09 08:31:18;;;;;;;4.50;0.70;;;22.60;99.90;;;;;;7392274;19;20134;-84
2022/06/09 08:33:44;;;;;;;2.17;1.00;;;23.00;99.90;;;;;;7394824;19;20138;-85
2022/06/09 08:36:11;;;;;;;3.13;1.40;;;23.40;99.90;;;;;;7396974;19;20134;-85
2022/06/09 08:38:37;;;;;;;4.72;1.13;;;23.90;99.90;;;;;;7394522;19;20163;-81
2022/06/09 08:41:17;;;;;;;3.17;0.60;;;24.40;99.90;;;;;;7394344;19;20146;-82
2022/06/09 08:44:04;;;;;;;2.15;0.75;;;24.40;99.30;;;;;;7393959;19;20146;-80
2022/06/09 08:46:49;;;;;;;2.17;0.90;;;23.60;99.90;;;;;;7394970;19;20146;-87
2022/06/09 08:49:24;;;;;;;2.20;0.90;;;22.80;99.90;;;;;;7393467;19;20184;-86
2022/06/09 08:51:52;;;;;;;1.92;0.75;;;22.80;99.90;;;;;;7394859;19;20138;-83
2022/06/09 08:54:26;;;;;;;2.13;0.93;;;22.30;99.90;;;;;;7393188;19;20146;-82
2022/06/09 08:56:53;;;;;;;3.28;0.60;;;21.70;99.90;;;;;;7389033;19;20520;-80
2022/06/09 08:59:24;;;;;;;1.83;0.80;;;21.60;99.90;;;;;;7392097;19;20139;-82
2022/06/09 09:02:02;;;;;;;3.65;0.75;;;22.10;99.90;;;;;;7392106;19;20163;-80
2022/06/09 09:04:48;;;;;;;4.70;0.95;;;22.60;99.90;;;;;;7393574;19;20216;-81
2022/06/09 09:07:26;;;;;;;2.00;0.68;;;22.50;99.90;;;;;;7399404;19;20154;-84
2022/06/09 09:10:28;;;;;;;1.83;0.70;;;22.40;99.90;;;;;;7391825;19;20153;-83
2022/06/09 09:13:15;;;;;;;2.40;0.68;;;21.80;99.90;;;;;;7392740;19;20146;-82
2022/06/09 09:15:49;;;;;;;2.28;0.70;;;21.40;99.90;;;;;;7393437;19;20131;-82
2022/06/09 09:18:40;;;;;;;1.67;0.90;;;21.40;99.90;;;;;;7393819;19;20150;-80
2022/06/09 09:21:25;;;;;;;2.95;0.93;;;21.90;99.90;;;;;;7402373;19;20151;-80
2022/06/09 09:23:57;;;;;;;3.35;1.10;;;22.10;99.90;;;;;;7397412;19;20150;-83
2022/06/09 09:26:22;;;;;;;3.85;0.95;;;21.90;99.90;;;;;;7401200;19;20154;-85
2022/06/09 09:29:18;;;;;;;2.75;1.30;;;21.80;99.90;;;;;;7400053;19;20143;-83
2022/06/09 09:32:01;;;;;;;3.72;0.70;;;22.00;99.90;;;;;;7399674;19;20229;-82
2022/06/09 09:34:34;;;;;;;2.95;0.90;;;22.20;99.90;;;;;;7406890;19;20147;-76
2022/06/09 09:37:25;;;;;;;4.50;1.83;;;22.30;99.90;;;;;;7404429;19;20143;-81
2022/06/09 09:40:06;;;;;;;3.35;0.93;;;22.20;99.90;;;;;;7398837;19;20146;-84
2022/06/09 09:42:34;;;;;;;2.30;0.80;;;21.90;99.90;;;;;;7404810;19;20149;-84
2022/06/09 09:45:09;;;;;;;3.42;1.42;;;21.50;99.90;;;;;;7399160;19;20161;-84
2022/06/09 09:48:00;;;;;;;4.68;0.90;;;21.20;99.90;;;;;;7401764;19;20731;-80
2022/06/09 09:50:53;;;;;;;3.05;0.98;;;21.20;99.90;;;;;;7401630;19;20207;-82
2022/06/09 09:53:19;;;;;;;1.50;0.70;;;21.30;99.90;;;;;;7398289;19;20206;-83
2022/06/09 09:55:51;;;;;;;2.53;0.82;;;21.50;99.90;;;;;;7399972;19;20134;-80
2022/06/09 09:58:21;;;;;;;1.60;0.60;;;21.50;99.90;;;;;;7397227;19;20156;-84
2022/06/09 10:00:59;;;;;;;1.48;0.60;;;21.30;99.90;;;;;;7396398;19;20142;-79
2022/06/09 10:09:41;;;;;;;1.95;0.90;;;21.70;99.90;;;;;;7395140;19;20391;-81
2022/06/09 10:12:23;;;;;;;3.72;0.88;;;21.60;99.90;;;;;;7396041;19;20221;-82
2022/06/09 10:15:09;;;;;;;3.95;1.02;;;21.40;99.90;;;;;;7395731;19;20143;-79
2022/06/09 10:17:48;;;;;;;1.63;0.98;;;21.40;99.90;;;;;;7405825;19;20184;-82
2022/06/09 10:20:14;;;;;;;3.97;2.08;;;21.70;99.90;;;;;;7394955;19;20433;-86
2022/06/09 10:22:44;;;;;;;3.60;0.95;;;21.90;99.90;;;;;;7398121;19;20486;-85
2022/06/09 10:25:20;;;;;;;0.68;0.60;;;22.00;99.90;;;;;;7397474;19;20430;-80
2022/06/09 10:27:52;;;;;;;2.00;0.80;;;21.80;99.90;;;;;;7395937;19;20165;-81
2022/06/09 10:30:44;;;;;;;1.40;0.75;;;21.60;99.90;;;;;;7396328;19;20194;-79
2022/06/09 10:33:34;;;;;;;2.17;0.77;;;21.20;99.90;;;;;;7395457;19;20227;-79
2022/06/09 10:36:10;;;;;;;1.95;0.60;;;20.90;99.90;;;;;;7400292;19;20604;-82
2022/06/09 10:38:47;;;;;;;1.90;0.65;;;21.00;99.90;;;;;;7397953;19;20145;-83
2022/06/09 10:41:21;;;;;;;2.60;0.68;;;21.00;99.90;;;;;;7395150;19;20147;-81
2022/06/09 10:44:03;;;;;;;5.43;0.75;;;21.30;99.90;;;;;;7399797;19;20609;-78
2022/06/09 10:46:36;;;;;;;1.08;0.60;;;20.90;99.90;;;;;;7395562;19;20205;-74
2022/06/09 10:55:16;;;;;;;1.63;0.70;;;21.00;99.90;;;;;;7395918;19;22413;-78
2022/06/09 10:58:05;;;;;;;1.17;0.60;;;21.10;99.90;;;;;;7396497;19;20154;-76
2022/06/09 11:00:35;;;;;;;2.72;1.08;;;21.20;99.90;;;;;;7390004;19;20135;-76
2022/06/09 11:03:10;;;;;;;2.85;1.13;;;21.50;99.90;;;;;;7391884;19;20143;-77
2022/06/09 11:06:06;;;;;;;1.70;0.68;;;21.70;99.90;;;;;;7392137;19;20182;-77
2022/06/09 11:08:45;;;;;;;4.85;0.90;;;21.70;99.90;;;;;;7390334;19;20130;-77
2022/06/09 11:11:19;;;;;;;1.67;0.70;;;21.50;99.90;;;;;;7389811;19;20147;-78
2022/06/09 11:14:23;;;;;;;1.52;0.60;;;21.20;99.90;;;;;;7392547;19;20163;-76
2022/06/09 11:17:13;;;;;;;2.95;0.75;;;21.40;99.90;;;;;;7395543;19;20137;-76
2022/06/09 11:20:00;;;;;;;1.88;0.80;;;21.10;99.90;;;;;;7392406;19;20266;-75
2022/06/09 11:22:33;;;;;;;1.98;0.50;;;20.50;99.90;;;;;;7392666;19;20153;-77
2022/06/09 11:25:35;;;;;;;1.00;0.60;;;20.30;99.90;;;;;;7392275;19;20183;-78
2022/06/09 11:28:07;;;;;;;3.20;1.13;;;20.50;99.90;;;;;;7392172;19;20138;-76
2022/06/09 11:31:02;;;;;;;1.80;0.95;;;20.70;99.90;;;;;;7390421;19;20170;-76
2022/06/09 11:33:33;;;;;;;2.80;0.82;;;20.90;99.90;;;;;;7391483;19;20142;-76
2022/06/09 11:36:38;;;;;;;1.20;0.50;;;21.20;99.90;;;;;;7389465;19;20673;-77
2022/06/09 11:39:06;;;;;;;2.72;1.00;;;21.20;99.90;;;;;;7390472;19;20232;-77
2022/06/09 11:41:50;;;;;;;2.97;0.63;;;21.20;99.90;;;;;;7390831;19;20183;-78
2022/06/09 11:44:27;;;;;;;2.38;0.63;;;21.00;99.90;;;;;;7392611;19;20198;-79
2022/06/09 11:46:57;;;;;;;2.50;0.77;;;21.10;99.90;;;;;;7389408;19;20187;-77
2022/06/09 11:49:36;;;;;;;1.60;0.80;;;21.10;99.90;;;;;;7390983;19;20162;-77
2022/06/09 11:52:06;;;;;;;3.15;0.90;;;20.90;99.90;;;;;;7392169;19;20145;-77
2022/06/09 11:54:53;;;;;;;2.72;0.93;;;20.90;99.90;;;;;;7390562;19;20273;-78
2022/06/09 11:57:42;;;;;;;2.67;1.15;;;21.10;99.90;;;;;;7388490;19;20141;-79
2022/06/09 12:00:22;;;;;;;1.48;1.00;;;21.30;99.90;;;;;;7391321;19;20185;-81
2022/06/09 12:02:53;;;;;;;5.78;2.03;;;21.50;99.90;;;;;;7389708;19;20138;-78
2022/06/09 12:05:37;;;;;;;6.45;1.00;;;21.80;99.90;;;;;;7390556;19;20154;-78
2022/06/09 12:08:35;;;;;;;2.10;0.82;;;22.00;99.90;;;;;;7390390;19;20159;-78
2022/06/09 12:11:14;;;;;;;3.95;0.90;;;21.80;99.90;;;;;;7386809;19;20142;-78
2022/06/09 12:14:09;;;;;;;1.58;0.70;;;21.60;99.90;;;;;;7390536;19;20146;-80
2022/06/09 12:16:54;;;;;;;4.55;1.10;;;21.70;99.90;;;;;;7390018;19;20158;-79
2022/06/09 12:19:29;;;;;;;1.88;1.00;;;22.00;99.90;;;;;;7389584;19;20173;-78
2022/06/09 12:22:17;;;;;;;2.90;1.45;;;22.20;99.90;;;;;;7393016;19;20138;-80
2022/06/09 12:25:14;;;;;;;1.90;1.10;;;22.40;99.90;;;;;;7389886;19;20640;-82
2022/06/09 12:27:49;;;;;;;2.45;1.02;;;22.60;99.90;;;;;;7391580;19;20168;-73
2022/06/09 12:30:35;;;;;;;2.22;0.65;;;22.20;98.50;;;;;;7390792;19;20168;-76
2022/06/09 12:33:27;;;;;;;1.65;0.75;;;21.90;98.20;;;;;;7391946;19;20138;-76
2022/06/09 12:35:57;;;;;;;2.05;0.90;;;21.70;98.30;;;;;;7389441;19;20168;-76
2022/06/09 12:38:34;;;;;;;4.43;0.90;;;21.60;98.60;;;;;;7390078;19;20507;-77
2022/06/09 12:41:30;;;;;;;1.80;1.02;;;21.60;99.60;;;;;;7389688;19;20141;-78
2022/06/09 12:44:15;;;;;;;2.05;0.70;;;21.80;99.60;;;;;;7387777;19;20146;-75
2022/06/09 12:46:41;;;;;;;4.38;1.35;;;22.10;98.90;;;;;;7388401;19;20142;-77
2022/06/09 12:49:15;;;;;;;2.22;0.90;;;22.00;98.90;;;;;;7386897;19;20721;-78
2022/06/09 12:51:42;;;;;;;2.25;0.90;;;22.00;99.30;;;;;;7388695;19;20135;-78
2022/06/09 12:54:29;;;;;;;3.17;0.75;;;22.10;98.60;;;;;;7389069;19;20137;-76
2022/06/09 12:57:03;;;;;;;1.70;0.80;;;22.10;98.00;;;;;;7389777;19;20158;-78
2022/06/09 12:59:34;;;;;;;1.35;0.70;;;21.80;98.70;;;;;;7388692;19;20613;-78
2022/06/09 13:02:18;;;;;;;2.33;1.25;;;21.80;99.00;;;;;;7390991;19;20138;-76
2022/06/09 13:05:00;;;;;;;2.20;0.98;;;21.70;99.30;;;;;;7389930;19;20179;-77
2022/06/09 13:07:33;;;;;;;2.33;0.90;;;21.60;99.50;;;;;;7391362;19;20142;-79
2022/06/09 13:10:16;;;;;;;3.30;0.60;;;21.60;99.50;;;;;;7389765;19;20499;-79
2022/06/09 13:12:51;;;;;;;1.33;0.60;;;21.60;99.10;;;;;;7389843;19;20146;-78
2022/06/09 13:15:33;;;;;;;1.90;0.63;;;21.90;99.70;;;;;;7388649;19;20262;-77
2022/06/09 13:18:11;;;;;;;3.30;1.15;;;22.20;98.80;;;;;;7388899;19;20165;-76
2022/06/09 13:20:39;;;;;;;1.52;0.93;;;22.30;99.30;;;;;;7389723;19;20605;-78
2022/06/09 13:23:09;;;;;;;4.85;0.60;;;22.30;99.10;;;;;;7390676;19;20145;-77
2022/06/09 13:25:36;;;;;;;0.82;0.70;;;22.60;97.90;;;;;;7391250;19;20159;-77
2022/06/09 13:28:02;;;;;;;1.65;0.68;;;22.50;97.20;;;;;;7387651;19;20145;-76
2022/06/09 13:30:40;;;;;;;2.75;0.63;;;22.20;97.10;;;;;;7389554;19;20135;-77
2022/06/09 13:33:48;;;;;;;1.23;0.80;;;22.00;96.90;;;;;;7391829;19;20151;-76